sensor_id;sensor_type;location;lat;lon;timestamp;temperature;humidity
29211;DHT22;16250;49.932;10.980;2022-11-15T00:00:54;8.40;99.90
29211;DHT22;16250;49.932;10.980;2022-11-15T00:03:22;8.40;99.90
29211;DHT22;16250;49.932;10.980;2022-11-15T00:05:48;8.40;99.90
29211;DHT22;16250;49.932;10.980;2022-11-15T00:08:14;8.50;99.90
29211;DHT22;16250;49.932;10.980;2022-11-15T00:10:40;8.50;99.90
29211;DHT22;16250;49.932;10.980;2022-11-15T00:13:10;8.50;99.90
29211;DHT22;16250;49.932;10.980;2022-11-15T00:15:40;8.50;99.90
29211;DHT22;16250;49.932;10.980;2022-11-15T00:18:11;8.50;99.90
29211;DHT22;16250;49.932;10.980;2022-11-15T00:20:37;8.60;99.90
29211;DHT22;16250;49.932;10.980;2022-11-15T00:23:03;8.50;99.90
29211;DHT22;16250;49.932;10.980;2022-11-15T00:25:29;8.50;99.90
29211;DHT22;16250;49.932;10.980;2022-11-15T00:27:56;8.50;99.90
29211;DHT22;16250;49.932;10.980;2022-11-15T00:30:22;8.50;99.90
29211;DHT22;16250;49.932;10.980;2022-11-15T00:32:48;8.50;99.90
29211;DHT22;16250;49.932;10.980;2022-11-15T00:35:14;8.40;99.90
29211;DHT22;16250;49.932;10.980;2022-11-15T00:37:39;8.40;99.90
29211;DHT22;16250;49.932;10.980;2022-11-15T00:40:05;8.40;99.90
29211;DHT22;16250;49.932;10.980;2022-11-15T00:42:31;8.30;99.90
29211;DHT22;16250;49.932;10.980;2022-11-15T00:44:57;8.30;99.90
29211;DHT22;16250;49.932;10.980;2022-11-15T00:47:22;8.30;99.90
29211;DHT22;16250;49.932;10.980;2022-11-15T00:49:48;8.20;99.90
29211;DHT22;16250;49.932;10.980;2022-11-15T00:52:13;8.20;99.90
29211;DHT22;16250;49.932;10.980;2022-11-15T00:54:39;8.20;99.90
29211;DHT22;16250;49.932;10.980;2022-11-15T00:57:04;8.30;99.90
29211;DHT22;16250;49.932;10.980;2022-11-15T00:59:30;8.40;99.90
29211;DHT22;16250;49.932;10.980;2022-11-15T01:01:55;8.40;99.90
29211;DHT22;16250;49.932;10.980;2022-11-15T01:04:21;8.40;99.90
29211;DHT22;16250;49.932;10.980;2022-11-15T01:06:46;8.50;99.90
29211;DHT22;16250;49.932;10.980;2022-11-15T01:09:12;8.50;99.90
29211;DHT22;16250;49.932;10.980;2022-11-15T01:11:39;8.50;99.90
29211;DHT22;16250;49.932;10.980;2022-11-15T01:14:04;8.50;99.90
29211;DHT22;16250;49.932;10.980;2022-11-15T01:16:30;8.60;99.90
29211;DHT22;16250;49.932;10.980;2022-11-15T01:18:56;8.70;99.90
29211;DHT22;16250;49.932;10.980;2022-11-15T01:21:21;8.60;99.90
29211;DHT22;16250;49.932;10.980;2022-11-15T01:23:47;8.60;99.90
29211;DHT22;16250;49.932;10.980;2022-11-15T01:26:14;8.60;99.90
29211;DHT22;16250;49.932;10.980;2022-11-15T01:28:41;8.60;99.90
29211;DHT22;16250;49.932;10.980;2022-11-15T01:31:12;8.50;99.90
29211;DHT22;16250;49.932;10.980;2022-11-15T01:33:38;8.50;99.90
29211;DHT22;16250;49.932;10.980;2022-11-15T01:36:10;8.60;99.90
29211;DHT22;16250;49.932;10.980;2022-11-15T01:38:36;8.60;99.90
29211;DHT22;16250;49.932;10.980;2022-11-15T01:41:02;8.60;99.90
29211;DHT22;16250;49.932;10.980;2022-11-15T01:43:34;8.60;99.90
29211;DHT22;16250;49.932;10.980;2022-11-15T01:46:31;8.60;99.90
29211;DHT22;16250;49.932;10.980;2022-11-15T01:49:04;8.60;99.90
29211;DHT22;16250;49.932;10.980;2022-11-15T01:51:33;8.50;99.90
29211;DHT22;16250;49.932;10.980;2022-11-15T01:54:06;8.60;99.90
29211;DHT22;16250;49.932;10.980;2022-11-15T01:56:51;8.70;99.90
29211;DHT22;16250;49.932;10.980;2022-11-15T01:59:18;8.70;99.90
29211;DHT22;16250;49.932;10.980;2022-11-15T02:01:44;8.80;99.90
29211;DHT22;16250;49.932;10.980;2022-11-15T02:04:14;8.80;99.90
29211;DHT22;16250;49.932;10.980;2022-11-15T02:06:41;8.80;99.90
29211;DHT22;16250;49.932;10.980;2022-11-15T02:09:07;8.90;99.90
29211;DHT22;16250;49.932;10.980;2022-11-15T02:11:33;9.00;99.90
29211;DHT22;16250;49.932;10.980;2022-11-15T02:14:00;9.00;99.90
29211;DHT22;16250;49.932;10.980;2022-11-15T02:22:20;9.10;99.90
29211;DHT22;16250;49.932;10.980;2022-11-15T02:30:34;9.40;99.90
29211;DHT22;16250;49.932;10.980;2022-11-15T02:33:15;9.30;99.90
29211;DHT22;16250;49.932;10.980;2022-11-15T02:35:52;9.20;99.90
29211;DHT22;16250;49.932;10.980;2022-11-15T02:38:29;9.00;99.90
29211;DHT22;16250;49.932;10.980;2022-11-15T02:43:34;8.60;99.90
29211;DHT22;16250;49.932;10.980;2022-11-15T02:49:50;8.50;99.90
29211;DHT22;16250;49.932;10.980;2022-11-15T02:52:18;8.60;99.90
29211;DHT22;16250;49.932;10.980;2022-11-15T02:54:56;8.60;99.90
29211;DHT22;16250;49.932;10.980;2022-11-15T03:00:19;8.70;99.90
29211;DHT22;16250;49.932;10.980;2022-11-15T03:03:47;8.70;99.90
29211;DHT22;16250;49.932;10.980;2022-11-15T03:06:31;8.70;99.90
29211;DHT22;16250;49.932;10.980;2022-11-15T03:09:15;8.70;99.90
29211;DHT22;16250;49.932;10.980;2022-11-15T03:11:48;8.70;99.90
29211;DHT22;16250;49.932;10.980;2022-11-15T03:14:35;8.80;99.90
29211;DHT22;16250;49.932;10.980;2022-11-15T03:19:54;8.60;99.90
29211;DHT22;16250;49.932;10.980;2022-11-15T03:22:23;8.60;99.90
29211;DHT22;16250;49.932;10.980;2022-11-15T03:24:54;8.70;99.90
29211;DHT22;16250;49.932;10.980;2022-11-15T03:27:24;8.60;99.90
29211;DHT22;16250;49.932;10.980;2022-11-15T03:29:56;8.60;99.90
29211;DHT22;16250;49.932;10.980;2022-11-15T03:32:26;8.50;99.90
29211;DHT22;16250;49.932;10.980;2022-11-15T03:34:57;8.50;99.90
29211;DHT22;16250;49.932;10.980;2022-11-15T03:37:33;8.50;99.90
29211;DHT22;16250;49.932;10.980;2022-11-15T03:39:59;8.20;99.90
29211;DHT22;16250;49.932;10.980;2022-11-15T03:42:48;7.80;99.90
29211;DHT22;16250;49.932;10.980;2022-11-15T03:45:22;7.80;99.90
29211;DHT22;16250;49.932;10.980;2022-11-15T03:47:58;7.90;99.90
29211;DHT22;16250;49.932;10.980;2022-11-15T03:50:24;7.90;99.90
29211;DHT22;16250;49.932;10.980;2022-11-15T03:52:51;7.90;99.90
29211;DHT22;16250;49.932;10.980;2022-11-15T03:55:20;7.80;99.90
29211;DHT22;16250;49.932;10.980;2022-11-15T03:57:48;7.80;99.90
29211;DHT22;16250;49.932;10.980;2022-11-15T04:00:15;7.70;99.90
29211;DHT22;16250;49.932;10.980;2022-11-15T04:02:40;7.60;99.90
29211;DHT22;16250;49.932;10.980;2022-11-15T04:05:06;7.60;99.90
29211;DHT22;16250;49.932;10.980;2022-11-15T04:07:32;7.60;99.90
29211;DHT22;16250;49.932;10.980;2022-11-15T04:09:57;7.50;99.90
29211;DHT22;16250;49.932;10.980;2022-11-15T04:12:30;7.50;99.90
29211;DHT22;16250;49.932;10.980;2022-11-15T04:14:59;7.50;99.90
29211;DHT22;16250;49.932;10.980;2022-11-15T04:20:15;7.50;99.90
29211;DHT22;16250;49.932;10.980;2022-11-15T04:23:03;7.50;99.90
29211;DHT22;16250;49.932;10.980;2022-11-15T04:25:49;7.40;99.90
29211;DHT22;16250;49.932;10.980;2022-11-15T04:28:16;7.40;99.90
29211;DHT22;16250;49.932;10.980;2022-11-15T04:30:41;7.50;99.90
29211;DHT22;16250;49.932;10.980;2022-11-15T04:33:07;7.10;99.90
29211;DHT22;16250;49.932;10.980;2022-11-15T04:35:33;6.90;99.90
29211;DHT22;16250;49.932;10.980;2022-11-15T04:37:59;6.90;99.90
29211;DHT22;16250;49.932;10.980;2022-11-15T04:40:25;6.90;99.90
29211;DHT22;16250;49.932;10.980;2022-11-15T04:42:50;6.80;99.90
29211;DHT22;16250;49.932;10.980;2022-11-15T04:45:16;6.80;99.90
29211;DHT22;16250;49.932;10.980;2022-11-15T04:47:45;6.80;99.90
29211;DHT22;16250;49.932;10.980;2022-11-15T04:50:12;6.80;99.90
29211;DHT22;16250;49.932;10.980;2022-11-15T04:52:58;6.80;99.90
29211;DHT22;16250;49.932;10.980;2022-11-15T04:55:24;6.80;99.90
29211;DHT22;16250;49.932;10.980;2022-11-15T04:57:58;6.80;99.90
29211;DHT22;16250;49.932;10.980;2022-11-15T05:00:24;6.80;99.90
29211;DHT22;16250;49.932;10.980;2022-11-15T05:02:49;6.90;99.90
29211;DHT22;16250;49.932;10.980;2022-11-15T05:05:33;6.80;99.90
29211;DHT22;16250;49.932;10.980;2022-11-15T05:07:59;6.80;99.90
29211;DHT22;16250;49.932;10.980;2022-11-15T05:10:24;6.70;99.90
29211;DHT22;16250;49.932;10.980;2022-11-15T05:12:50;6.60;99.90
29211;DHT22;16250;49.932;10.980;2022-11-15T05:15:16;6.60;99.90
29211;DHT22;16250;49.932;10.980;2022-11-15T05:17:41;6.40;99.90
29211;DHT22;16250;49.932;10.980;2022-11-15T05:20:07;6.40;99.90
29211;DHT22;16250;49.932;10.980;2022-11-15T05:22:33;6.40;99.90
29211;DHT22;16250;49.932;10.980;2022-11-15T05:24:58;6.30;99.90
29211;DHT22;16250;49.932;10.980;2022-11-15T05:27:24;6.20;99.90
29211;DHT22;16250;49.932;10.980;2022-11-15T05:29:49;6.20;99.90
29211;DHT22;16250;49.932;10.980;2022-11-15T05:32:16;6.20;99.90
29211;DHT22;16250;49.932;10.980;2022-11-15T05:34:43;6.20;99.90
29211;DHT22;16250;49.932;10.980;2022-11-15T05:37:09;6.30;99.90
29211;DHT22;16250;49.932;10.980;2022-11-15T05:39:35;6.40;99.90
29211;DHT22;16250;49.932;10.980;2022-11-15T05:42:08;6.40;99.90
29211;DHT22;16250;49.932;10.980;2022-11-15T05:44:36;6.40;99.90
29211;DHT22;16250;49.932;10.980;2022-11-15T05:47:03;6.40;99.90
29211;DHT22;16250;49.932;10.980;2022-11-15T05:49:33;6.40;99.90
29211;DHT22;16250;49.932;10.980;2022-11-15T05:52:00;6.40;99.90
29211;DHT22;16250;49.932;10.980;2022-11-15T05:54:28;6.30;99.90
29211;DHT22;16250;49.932;10.980;2022-11-15T05:56:53;6.10;99.90
29211;DHT22;16250;49.932;10.980;2022-11-15T05:59:20;6.20;99.90
29211;DHT22;16250;49.932;10.980;2022-11-15T06:01:46;6.20;99.90
29211;DHT22;16250;49.932;10.980;2022-11-15T06:04:11;6.20;99.90
29211;DHT22;16250;49.932;10.980;2022-11-15T06:06:37;6.20;99.90
29211;DHT22;16250;49.932;10.980;2022-11-15T06:09:02;6.20;99.90
29211;DHT22;16250;49.932;10.980;2022-11-15T06:11:28;6.20;99.90
29211;DHT22;16250;49.932;10.980;2022-11-15T06:13:53;6.00;99.90
29211;DHT22;16250;49.932;10.980;2022-11-15T06:16:19;6.00;99.90
29211;DHT22;16250;49.932;10.980;2022-11-15T06:18:45;5.90;99.90
29211;DHT22;16250;49.932;10.980;2022-11-15T06:21:11;5.80;99.90
29211;DHT22;16250;49.932;10.980;2022-11-15T06:23:36;5.90;99.90
29211;DHT22;16250;49.932;10.980;2022-11-15T06:26:03;5.90;99.90
29211;DHT22;16250;49.932;10.980;2022-11-15T06:28:32;5.90;99.90
29211;DHT22;16250;49.932;10.980;2022-11-15T06:31:09;5.90;99.90
29211;DHT22;16250;49.932;10.980;2022-11-15T06:33:36;5.90;99.90
29211;DHT22;16250;49.932;10.980;2022-11-15T06:36:11;5.90;99.90
29211;DHT22;16250;49.932;10.980;2022-11-15T06:38:39;5.90;99.90
29211;DHT22;16250;49.932;10.980;2022-11-15T06:41:07;5.90;99.90
29211;DHT22;16250;49.932;10.980;2022-11-15T06:43:33;5.70;99.90
29211;DHT22;16250;49.932;10.980;2022-11-15T06:46:00;5.30;99.90
29211;DHT22;16250;49.932;10.980;2022-11-15T06:48:27;5.20;99.90
29211;DHT22;16250;49.932;10.980;2022-11-15T06:50:54;5.20;99.90
29211;DHT22;16250;49.932;10.980;2022-11-15T06:53:20;5.20;99.90
29211;DHT22;16250;49.932;10.980;2022-11-15T06:55:46;5.10;99.90
29211;DHT22;16250;49.932;10.980;2022-11-15T06:58:11;5.10;99.90
29211;DHT22;16250;49.932;10.980;2022-11-15T07:00:37;5.10;99.90
29211;DHT22;16250;49.932;10.980;2022-11-15T07:03:03;5.30;99.90
29211;DHT22;16250;49.932;10.980;2022-11-15T07:05:29;5.40;99.90
29211;DHT22;16250;49.932;10.980;2022-11-15T07:07:56;5.50;99.90
29211;DHT22;16250;49.932;10.980;2022-11-15T07:10:23;5.50;99.90
29211;DHT22;16250;49.932;10.980;2022-11-15T07:12:53;5.40;99.90
29211;DHT22;16250;49.932;10.980;2022-11-15T07:15:21;5.50;99.90
29211;DHT22;16250;49.932;10.980;2022-11-15T07:17:47;5.60;99.90
29211;DHT22;16250;49.932;10.980;2022-11-15T07:20:13;5.60;99.90
29211;DHT22;16250;49.932;10.980;2022-11-15T07:22:42;5.70;99.90
29211;DHT22;16250;49.932;10.980;2022-11-15T07:25:10;5.90;99.90
29211;DHT22;16250;49.932;10.980;2022-11-15T07:27:36;6.00;99.90
29211;DHT22;16250;49.932;10.980;2022-11-15T07:30:02;5.90;99.90
29211;DHT22;16250;49.932;10.980;2022-11-15T07:32:27;6.00;99.90
29211;DHT22;16250;49.932;10.980;2022-11-15T07:34:53;6.00;99.90
29211;DHT22;16250;49.932;10.980;2022-11-15T07:37:18;5.90;99.90
29211;DHT22;16250;49.932;10.980;2022-11-15T07:39:44;5.90;99.90
29211;DHT22;16250;49.932;10.980;2022-11-15T07:42:10;5.90;99.90
29211;DHT22;16250;49.932;10.980;2022-11-15T07:44:54;6.00;99.90
29211;DHT22;16250;49.932;10.980;2022-11-15T07:47:20;6.20;99.90
29211;DHT22;16250;49.932;10.980;2022-11-15T07:49:46;6.30;99.90
29211;DHT22;16250;49.932;10.980;2022-11-15T07:52:12;6.40;99.90
29211;DHT22;16250;49.932;10.980;2022-11-15T07:54:38;6.40;99.90
29211;DHT22;16250;49.932;10.980;2022-11-15T07:57:04;6.50;99.90
29211;DHT22;16250;49.932;10.980;2022-11-15T07:59:31;6.70;99.90
29211;DHT22;16250;49.932;10.980;2022-11-15T08:01:56;6.70;99.90
29211;DHT22;16250;49.932;10.980;2022-11-15T08:04:22;6.70;99.90
29211;DHT22;16250;49.932;10.980;2022-11-15T08:06:47;6.80;99.90
29211;DHT22;16250;49.932;10.980;2022-11-15T08:09:13;6.80;99.90
29211;DHT22;16250;49.932;10.980;2022-11-15T08:11:38;6.90;99.90
29211;DHT22;16250;49.932;10.980;2022-11-15T08:14:04;6.90;99.90
29211;DHT22;16250;49.932;10.980;2022-11-15T08:16:30;7.00;99.90
29211;DHT22;16250;49.932;10.980;2022-11-15T08:18:56;7.00;99.90
29211;DHT22;16250;49.932;10.980;2022-11-15T08:21:21;7.20;99.90
29211;DHT22;16250;49.932;10.980;2022-11-15T08:23:47;7.20;99.90
29211;DHT22;16250;49.932;10.980;2022-11-15T08:26:13;7.20;99.90
29211;DHT22;16250;49.932;10.980;2022-11-15T08:28:38;7.30;99.90
29211;DHT22;16250;49.932;10.980;2022-11-15T08:31:04;7.30;99.90
29211;DHT22;16250;49.932;10.980;2022-11-15T08:33:30;7.40;99.90
29211;DHT22;16250;49.932;10.980;2022-11-15T08:35:57;7.50;99.90
29211;DHT22;16250;49.932;10.980;2022-11-15T08:38:23;7.60;99.90
29211;DHT22;16250;49.932;10.980;2022-11-15T08:40:50;7.70;99.90
29211;DHT22;16250;49.932;10.980;2022-11-15T08:43:16;7.70;99.90
29211;DHT22;16250;49.932;10.980;2022-11-15T08:45:41;7.70;99.90
29211;DHT22;16250;49.932;10.980;2022-11-15T08:48:07;7.90;99.90
29211;DHT22;16250;49.932;10.980;2022-11-15T08:50:32;7.90;99.90
29211;DHT22;16250;49.932;10.980;2022-11-15T08:53:03;8.00;99.90
29211;DHT22;16250;49.932;10.980;2022-11-15T08:55:29;8.10;99.90
29211;DHT22;16250;49.932;10.980;2022-11-15T08:57:57;8.20;99.90
29211;DHT22;16250;49.932;10.980;2022-11-15T09:00:22;8.20;99.90
29211;DHT22;16250;49.932;10.980;2022-11-15T09:02:48;8.30;99.90
29211;DHT22;16250;49.932;10.980;2022-11-15T09:05:13;8.30;99.90
29211;DHT22;16250;49.932;10.980;2022-11-15T09:07:40;8.40;99.90
29211;DHT22;16250;49.932;10.980;2022-11-15T09:10:06;8.50;99.90
29211;DHT22;16250;49.932;10.980;2022-11-15T09:12:32;8.50;99.90
29211;DHT22;16250;49.932;10.980;2022-11-15T09:14:57;8.60;99.90
29211;DHT22;16250;49.932;10.980;2022-11-15T09:17:23;8.80;99.90
29211;DHT22;16250;49.932;10.980;2022-11-15T09:19:49;8.80;99.90
29211;DHT22;16250;49.932;10.980;2022-11-15T09:22:14;8.80;99.90
29211;DHT22;16250;49.932;10.980;2022-11-15T09:24:40;8.80;99.90
29211;DHT22;16250;49.932;10.980;2022-11-15T09:27:05;8.80;99.90
29211;DHT22;16250;49.932;10.980;2022-11-15T09:29:31;8.80;99.90
29211;DHT22;16250;49.932;10.980;2022-11-15T09:31:56;8.90;99.90
29211;DHT22;16250;49.932;10.980;2022-11-15T09:34:22;9.00;99.90
29211;DHT22;16250;49.932;10.980;2022-11-15T09:36:47;9.00;99.90
29211;DHT22;16250;49.932;10.980;2022-11-15T09:39:13;9.10;99.90
29211;DHT22;16250;49.932;10.980;2022-11-15T09:41:48;9.20;99.90
29211;DHT22;16250;49.932;10.980;2022-11-15T09:44:37;9.20;99.90
29211;DHT22;16250;49.932;10.980;2022-11-15T09:47:32;9.30;99.90
29211;DHT22;16250;49.932;10.980;2022-11-15T09:49:59;9.40;99.90
29211;DHT22;16250;49.932;10.980;2022-11-15T09:52:25;9.40;99.90
29211;DHT22;16250;49.932;10.980;2022-11-15T09:54:52;9.30;99.90
29211;DHT22;16250;49.932;10.980;2022-11-15T09:57:32;9.40;99.90
29211;DHT22;16250;49.932;10.980;2022-11-15T10:00:04;9.40;99.90
29211;DHT22;16250;49.932;10.980;2022-11-15T10:05:25;9.90;99.90
29211;DHT22;16250;49.932;10.980;2022-11-15T10:10:59;10.40;99.90
29211;DHT22;16250;49.932;10.980;2022-11-15T10:13:26;10.30;99.90
29211;DHT22;16250;49.932;10.980;2022-11-15T10:16:01;10.40;99.90
29211;DHT22;16250;49.932;10.980;2022-11-15T10:18:35;10.40;99.90
29211;DHT22;16250;49.932;10.980;2022-11-15T10:21:17;10.50;99.90
29211;DHT22;16250;49.932;10.980;2022-11-15T10:23:43;10.80;99.90
29211;DHT22;16250;49.932;10.980;2022-11-15T10:26:12;10.90;99.90
29211;DHT22;16250;49.932;10.980;2022-11-15T10:28:38;11.10;99.90
29211;DHT22;16250;49.932;10.980;2022-11-15T10:31:26;11.20;99.90
29211;DHT22;16250;49.932;10.980;2022-11-15T10:34:15;11.50;99.90
29211;DHT22;16250;49.932;10.980;2022-11-15T10:36:46;11.80;99.90
29211;DHT22;16250;49.932;10.980;2022-11-15T10:39:18;11.80;99.90
29211;DHT22;16250;49.932;10.980;2022-11-15T10:41:44;11.80;99.90
29211;DHT22;16250;49.932;10.980;2022-11-15T10:44:23;12.10;99.90
29211;DHT22;16250;49.932;10.980;2022-11-15T10:47:06;12.30;99.90
29211;DHT22;16250;49.932;10.980;2022-11-15T10:49:54;12.20;99.90
29211;DHT22;16250;49.932;10.980;2022-11-15T10:52:20;12.10;99.90
29211;DHT22;16250;49.932;10.980;2022-11-15T10:57:26;12.10;99.90
29211;DHT22;16250;49.932;10.980;2022-11-15T11:00:00;12.30;99.90
29211;DHT22;16250;49.932;10.980;2022-11-15T11:02:40;12.20;99.90
29211;DHT22;16250;49.932;10.980;2022-11-15T11:05:32;12.50;99.90
29211;DHT22;16250;49.932;10.980;2022-11-15T11:08:20;12.40;99.90
29211;DHT22;16250;49.932;10.980;2022-11-15T11:10:57;12.70;99.90
29211;DHT22;16250;49.932;10.980;2022-11-15T11:13:31;12.80;99.90
29211;DHT22;16250;49.932;10.980;2022-11-15T11:21:19;12.70;99.90
29211;DHT22;16250;49.932;10.980;2022-11-15T11:24:08;12.90;99.90
29211;DHT22;16250;49.932;10.980;2022-11-15T11:26:49;12.80;99.90
29211;DHT22;16250;49.932;10.980;2022-11-15T11:48:00;12.90;99.90
29211;DHT22;16250;49.932;10.980;2022-11-15T11:50:29;12.80;99.90
29211;DHT22;16250;49.932;10.980;2022-11-15T11:53:03;12.70;99.90
29211;DHT22;16250;49.932;10.980;2022-11-15T11:58:17;12.90;99.90
29211;DHT22;16250;49.932;10.980;2022-11-15T12:01:20;12.80;99.90
29211;DHT22;16250;49.932;10.980;2022-11-15T12:03:53;13.30;99.90
29211;DHT22;16250;49.932;10.980;2022-11-15T12:06:44;13.30;99.90
29211;DHT22;16250;49.932;10.980;2022-11-15T12:09:22;13.60;99.90
29211;DHT22;16250;49.932;10.980;2022-11-15T12:12:12;13.60;99.90
29211;DHT22;16250;49.932;10.980;2022-11-15T12:14:42;13.80;99.90
29211;DHT22;16250;49.932;10.980;2022-11-15T12:17:10;13.70;99.90
29211;DHT22;16250;49.932;10.980;2022-11-15T12:19:37;13.50;99.90
29211;DHT22;16250;49.932;10.980;2022-11-15T12:22:16;13.60;99.90
29211;DHT22;16250;49.932;10.980;2022-11-15T12:25:44;13.60;99.90
29211;DHT22;16250;49.932;10.980;2022-11-15T12:28:00;13.90;99.90
29211;DHT22;16250;49.932;10.980;2022-11-15T12:30:45;14.20;99.90
29211;DHT22;16250;49.932;10.980;2022-11-15T12:33:40;14.10;99.90
29211;DHT22;16250;49.932;10.980;2022-11-15T12:36:30;14.00;99.90
29211;DHT22;16250;49.932;10.980;2022-11-15T12:39:07;14.20;99.90
29211;DHT22;16250;49.932;10.980;2022-11-15T12:47:21;14.20;99.90
29211;DHT22;16250;49.932;10.980;2022-11-15T12:49:48;14.20;99.90
29211;DHT22;16250;49.932;10.980;2022-11-15T12:52:14;14.30;99.90
29211;DHT22;16250;49.932;10.980;2022-11-15T12:59:54;14.20;99.90
29211;DHT22;16250;49.932;10.980;2022-11-15T13:02:41;14.10;99.90
29211;DHT22;16250;49.932;10.980;2022-11-15T13:17:48;13.50;99.90
29211;DHT22;16250;49.932;10.980;2022-11-15T13:31:30;13.50;99.90
29211;DHT22;16250;49.932;10.980;2022-11-15T13:34:35;13.40;99.90
29211;DHT22;16250;49.932;10.980;2022-11-15T13:36:53;13.40;99.90
29211;DHT22;16250;49.932;10.980;2022-11-15T13:39:28;13.40;99.90
29211;DHT22;16250;49.932;10.980;2022-11-15T13:41:54;13.40;99.90
29211;DHT22;16250;49.932;10.980;2022-11-15T13:44:40;13.40;99.90
29211;DHT22;16250;49.932;10.980;2022-11-15T13:47:19;13.40;99.90
29211;DHT22;16250;49.932;10.980;2022-11-15T13:49:45;13.40;99.90
29211;DHT22;16250;49.932;10.980;2022-11-15T13:52:13;13.30;99.90
29211;DHT22;16250;49.932;10.980;2022-11-15T13:54:45;13.30;99.90
29211;DHT22;16250;49.932;10.980;2022-11-15T13:57:23;13.20;99.90
29211;DHT22;16250;49.932;10.980;2022-11-15T13:59:52;13.20;99.90
29211;DHT22;16250;49.932;10.980;2022-11-15T14:02:27;13.20;99.90
29211;DHT22;16250;49.932;10.980;2022-11-15T14:04:57;13.30;99.90
29211;DHT22;16250;49.932;10.980;2022-11-15T14:07:27;13.30;99.90
29211;DHT22;16250;49.932;10.980;2022-11-15T14:09:56;13.40;99.90
29211;DHT22;16250;49.932;10.980;2022-11-15T14:12:32;13.40;99.90
29211;DHT22;16250;49.932;10.980;2022-11-15T14:15:01;13.40;99.90
29211;DHT22;16250;49.932;10.980;2022-11-15T14:19:56;13.40;99.90
29211;DHT22;16250;49.932;10.980;2022-11-15T14:22:29;13.30;99.90
29211;DHT22;16250;49.932;10.980;2022-11-15T14:25:15;13.30;99.90
29211;DHT22;16250;49.932;10.980;2022-11-15T14:27:43;13.30;99.90
29211;DHT22;16250;49.932;10.980;2022-11-15T14:30:18;13.20;99.90
29211;DHT22;16250;49.932;10.980;2022-11-15T14:32:50;13.10;99.90
29211;DHT22;16250;49.932;10.980;2022-11-15T14:35:18;13.00;99.90
29211;DHT22;16250;49.932;10.980;2022-11-15T14:37:45;13.00;99.90
29211;DHT22;16250;49.932;10.980;2022-11-15T14:40:14;12.90;99.90
29211;DHT22;16250;49.932;10.980;2022-11-15T14:42:41;12.90;99.90
29211;DHT22;16250;49.932;10.980;2022-11-15T14:45:21;12.80;99.90
29211;DHT22;16250;49.932;10.980;2022-11-15T14:47:47;12.90;99.90
29211;DHT22;16250;49.932;10.980;2022-11-15T14:50:15;13.00;99.90
29211;DHT22;16250;49.932;10.980;2022-11-15T14:52:41;13.00;99.90
29211;DHT22;16250;49.932;10.980;2022-11-15T14:55:32;12.90;99.90
29211;DHT22;16250;49.932;10.980;2022-11-15T14:58:00;13.00;99.90
29211;DHT22;16250;49.932;10.980;2022-11-15T15:00:29;12.60;99.90
29211;DHT22;16250;49.932;10.980;2022-11-15T15:02:54;12.60;99.90
29211;DHT22;16250;49.932;10.980;2022-11-15T15:05:27;12.50;99.90
29211;DHT22;16250;49.932;10.980;2022-11-15T15:07:54;12.50;99.90
29211;DHT22;16250;49.932;10.980;2022-11-15T15:10:21;12.40;99.90
29211;DHT22;16250;49.932;10.980;2022-11-15T15:12:47;12.20;99.90
29211;DHT22;16250;49.932;10.980;2022-11-15T15:15:20;12.20;99.90
29211;DHT22;16250;49.932;10.980;2022-11-15T15:17:46;12.00;99.90
29211;DHT22;16250;49.932;10.980;2022-11-15T15:20:12;12.00;99.90
29211;DHT22;16250;49.932;10.980;2022-11-15T15:22:38;11.90;99.90
29211;DHT22;16250;49.932;10.980;2022-11-15T15:25:49;11.70;99.90
29211;DHT22;16250;49.932;10.980;2022-11-15T15:28:08;11.60;99.90
29211;DHT22;16250;49.932;10.980;2022-11-15T15:30:34;11.60;99.90
29211;DHT22;16250;49.932;10.980;2022-11-15T15:32:59;11.50;99.90
29211;DHT22;16250;49.932;10.980;2022-11-15T15:35:30;11.30;99.90
29211;DHT22;16250;49.932;10.980;2022-11-15T15:37:57;11.10;99.90
29211;DHT22;16250;49.932;10.980;2022-11-15T15:40:24;11.00;99.90
29211;DHT22;16250;49.932;10.980;2022-11-15T15:42:50;11.00;99.90
29211;DHT22;16250;49.932;10.980;2022-11-15T15:45:16;10.90;99.90
29211;DHT22;16250;49.932;10.980;2022-11-15T15:47:42;10.80;99.90
29211;DHT22;16250;49.932;10.980;2022-11-15T15:50:28;10.70;99.90
29211;DHT22;16250;49.932;10.980;2022-11-15T15:52:56;10.60;99.90
29211;DHT22;16250;49.932;10.980;2022-11-15T15:55:22;10.50;99.90
29211;DHT22;16250;49.932;10.980;2022-11-15T15:57:48;10.40;99.90
29211;DHT22;16250;49.932;10.980;2022-11-15T16:00:14;10.40;99.90
29211;DHT22;16250;49.932;10.980;2022-11-15T16:02:40;10.30;99.90
29211;DHT22;16250;49.932;10.980;2022-11-15T16:05:06;10.30;99.90
29211;DHT22;16250;49.932;10.980;2022-11-15T16:07:32;10.20;99.90
29211;DHT22;16250;49.932;10.980;2022-11-15T16:09:58;10.10;99.90
29211;DHT22;16250;49.932;10.980;2022-11-15T16:12:30;10.10;99.90
29211;DHT22;16250;49.932;10.980;2022-11-15T16:14:56;10.10;99.90
29211;DHT22;16250;49.932;10.980;2022-11-15T16:17:25;10.10;99.90
29211;DHT22;16250;49.932;10.980;2022-11-15T16:19:51;10.10;99.90
29211;DHT22;16250;49.932;10.980;2022-11-15T16:22:17;10.00;99.90
29211;DHT22;16250;49.932;10.980;2022-11-15T16:24:42;10.00;99.90
29211;DHT22;16250;49.932;10.980;2022-11-15T16:27:16;9.90;99.90
29211;DHT22;16250;49.932;10.980;2022-11-15T16:29:42;9.80;99.90
29211;DHT22;16250;49.932;10.980;2022-11-15T16:32:07;9.70;99.90
29211;DHT22;16250;49.932;10.980;2022-11-15T16:34:33;9.70;99.90
29211;DHT22;16250;49.932;10.980;2022-11-15T16:36:59;9.60;99.90
29211;DHT22;16250;49.932;10.980;2022-11-15T16:39:24;9.70;99.90
29211;DHT22;16250;49.932;10.980;2022-11-15T16:41:50;9.60;99.90
29211;DHT22;16250;49.932;10.980;2022-11-15T16:44:15;9.60;99.90
29211;DHT22;16250;49.932;10.980;2022-11-15T16:46:42;9.60;99.90
29211;DHT22;16250;49.932;10.980;2022-11-15T16:49:12;9.50;99.90
29211;DHT22;16250;49.932;10.980;2022-11-15T16:51:39;9.40;99.90
29211;DHT22;16250;49.932;10.980;2022-11-15T16:54:06;9.40;99.90
29211;DHT22;16250;49.932;10.980;2022-11-15T16:56:31;9.40;99.90
29211;DHT22;16250;49.932;10.980;2022-11-15T16:58:59;9.40;99.90
29211;DHT22;16250;49.932;10.980;2022-11-15T17:01:26;9.50;99.90
29211;DHT22;16250;49.932;10.980;2022-11-15T17:03:53;9.50;99.90
29211;DHT22;16250;49.932;10.980;2022-11-15T17:06:19;9.50;99.90
29211;DHT22;16250;49.932;10.980;2022-11-15T17:08:46;9.50;99.90
29211;DHT22;16250;49.932;10.980;2022-11-15T17:11:18;9.50;99.90
29211;DHT22;16250;49.932;10.980;2022-11-15T17:13:44;9.60;99.90
29211;DHT22;16250;49.932;10.980;2022-11-15T17:16:12;9.60;99.90
29211;DHT22;16250;49.932;10.980;2022-11-15T17:18:39;9.70;99.90
29211;DHT22;16250;49.932;10.980;2022-11-15T17:21:10;9.80;99.90